METAR Data
IDs: Format: Raw Decoded Include TAF

Data at: 1409 UTC 27 Nov 2021

LSGG 271350Z 22012KT 9999 FEW030 SCT060 06/M01 Q0995 NOSIG